Time;durP1;ratioP1;P1;durP2;ratioP2;P2;SDS_P1;SDS_P2;PMS_P1;PMS_P2;Temp;Humidity;BMP_temperature;BMP_pressure;BME280_temperature;BME280_humidity;BME280_pressure;Samples;Min_cycle;Max_cycle;Signal;HPM_P1;HPM_P2
2022/12/26 00:01:34;;;;;;;11.90;8.00;;;5.90;99.90;;;;;;5025167;28;20020;-58
2022/12/26 00:03:59;;;;;;;11.57;7.18;;;6.00;99.90;;;;;;5022364;28;20404;-57
2022/12/26 00:06:27;;;;;;;15.35;9.05;;;6.00;99.90;;;;;;5006179;28;20125;-56
2022/12/26 00:08:53;;;;;;;12.70;7.70;;;6.00;99.90;;;;;;5021238;28;20045;-57
2022/12/26 00:11:20;;;;;;;8.93;6.32;;;5.90;99.90;;;;;;5020152;28;20504;-57
2022/12/26 00:13:46;;;;;;;8.25;6.63;;;6.00;99.90;;;;;;5025771;28;20649;-59
2022/12/26 00:16:15;;;;;;;13.18;8.00;;;6.00;99.90;;;;;;5021102;28;20030;-58
2022/12/26 00:18:41;;;;;;;8.95;6.53;;;6.00;99.90;;;;;;5019785;28;20033;-59
2022/12/26 00:21:09;;;;;;;12.00;8.05;;;6.00;99.90;;;;;;5022628;28;20060;-59
2022/12/26 00:23:36;;;;;;;10.13;7.78;;;6.00;99.90;;;;;;5027197;28;20022;-59
2022/12/26 00:26:08;;;;;;;10.25;6.97;;;6.00;99.90;;;;;;5008126;28;20018;-58
2022/12/26 00:28:34;;;;;;;8.85;6.97;;;6.00;99.90;;;;;;5030127;28;20033;-59
2022/12/26 00:31:09;;;;;;;10.85;6.82;;;6.00;99.90;;;;;;5031028;28;20519;-60
2022/12/26 00:33:34;;;;;;;9.65;6.68;;;6.00;99.90;;;;;;5023462;28;20033;-59
2022/12/26 00:36:14;;;;;;;11.15;6.40;;;6.00;99.90;;;;;;5024710;28;20504;-60
2022/12/26 00:38:41;;;;;;;11.63;7.72;;;5.90;99.90;;;;;;5021262;28;20057;-58
2022/12/26 00:41:08;;;;;;;10.73;6.70;;;6.00;99.90;;;;;;5028458;28;20018;-59
2022/12/26 00:43:34;;;;;;;10.50;6.72;;;6.00;99.90;;;;;;5030203;28;20467;-59
2022/12/26 00:46:00;;;;;;;9.85;7.07;;;6.00;99.90;;;;;;5029253;28;20108;-58
2022/12/26 00:48:26;;;;;;;11.23;8.48;;;6.00;99.90;;;;;;5027259;28;20037;-59
2022/12/26 00:50:52;;;;;;;11.88;8.40;;;6.00;99.90;;;;;;5027416;28;20030;-59
2022/12/26 00:53:18;;;;;;;11.75;7.60;;;6.00;99.90;;;;;;5012542;28;20029;-58
2022/12/26 00:55:44;;;;;;;9.50;6.85;;;6.00;99.90;;;;;;5028067;28;20079;-58
2022/12/26 00:58:09;;;;;;;15.25;8.75;;;6.00;99.90;;;;;;5029699;28;20452;-60
2022/12/26 01:00:35;;;;;;;11.73;7.82;;;6.00;99.90;;;;;;5030670;28;20415;-60
2022/12/26 01:03:01;;;;;;;24.40;9.20;;;6.00;99.90;;;;;;5030516;28;20710;-59
2022/12/26 01:05:27;;;;;;;10.85;7.63;;;6.00;99.90;;;;;;5008035;28;20627;-59
2022/12/26 01:07:53;;;;;;;11.50;8.32;;;6.00;99.90;;;;;;5023030;28;20116;-59
2022/12/26 01:10:18;;;;;;;13.48;8.80;;;6.00;99.90;;;;;;5021380;28;20069;-58
2022/12/26 01:12:44;;;;;;;10.38;7.80;;;6.00;99.90;;;;;;5020998;28;20029;-57
2022/12/26 01:15:10;;;;;;;15.50;9.88;;;6.00;99.90;;;;;;5021905;28;20034;-59
2022/12/26 01:17:36;;;;;;;12.38;8.68;;;6.00;99.90;;;;;;5026597;28;20104;-58
2022/12/26 01:20:02;;;;;;;20.25;9.88;;;6.10;99.90;;;;;;5028570;28;20404;-60
2022/12/26 01:22:28;;;;;;;13.15;8.38;;;6.10;99.90;;;;;;5007530;28;20105;-57
2022/12/26 01:24:54;;;;;;;13.38;9.35;;;6.00;99.90;;;;;;5021684;28;20164;-59
2022/12/26 01:27:20;;;;;;;14.32;9.65;;;6.10;99.90;;;;;;5029342;28;20448;-59
2022/12/26 01:29:46;;;;;;;14.95;10.07;;;6.00;99.90;;;;;;5009256;28;20025;-59
2022/12/26 01:32:11;;;;;;;14.98;10.60;;;6.10;99.90;;;;;;5028272;28;20036;-59
2022/12/26 01:34:37;;;;;;;22.13;10.88;;;6.00;99.90;;;;;;5025516;28;20039;-59
2022/12/26 01:37:02;;;;;;;14.35;9.07;;;6.10;99.90;;;;;;5027454;28;20017;-59
2022/12/26 01:39:28;;;;;;;12.20;8.15;;;6.00;99.90;;;;;;5012545;28;20033;-59
2022/12/26 01:41:53;;;;;;;12.77;9.32;;;6.00;99.90;;;;;;5030666;28;20053;-58
2022/12/26 01:44:53;;;;;;;17.27;9.70;;;6.00;99.90;;;;;;5030259;28;20021;-59
2022/12/26 01:47:21;;;;;;;13.57;8.95;;;6.00;99.90;;;;;;5025999;28;20588;-59
2022/12/26 01:49:50;;;;;;;12.95;8.00;;;6.00;99.90;;;;;;5018264;28;20084;-59
2022/12/26 01:52:23;;;;;;;11.18;8.57;;;6.00;99.90;;;;;;5027546;28;20022;-58
2022/12/26 01:54:51;;;;;;;9.73;6.47;;;6.10;99.90;;;;;;5024126;28;20034;-59
2022/12/26 01:57:25;;;;;;;13.27;8.38;;;6.10;99.90;;;;;;5018193;28;20568;-57
2022/12/26 01:59:51;;;;;;;15.48;7.72;;;6.10;99.90;;;;;;5011954;28;20447;-58
2022/12/26 02:02:19;;;;;;;10.98;7.32;;;6.10;99.90;;;;;;5028794;28;20025;-57
2022/12/26 02:07:35;;;;;;;14.27;7.40;;;6.20;99.90;;;;;;5022425;28;20080;-58
2022/12/26 02:10:01;;;;;;;11.60;6.90;;;6.20;99.90;;;;;;5023608;28;20017;-58
2022/12/26 02:12:33;;;;;;;14.00;7.20;;;6.20;99.90;;;;;;5023608;28;20501;-59
2022/12/26 02:15:00;;;;;;;11.88;6.15;;;6.20;99.90;;;;;;5028444;28;20092;-58
2022/12/26 02:17:27;;;;;;;9.60;6.18;;;6.20;99.90;;;;;;5026203;28;20138;-58
2022/12/26 02:19:58;;;;;;;13.65;7.25;;;6.20;99.90;;;;;;5028665;28;20040;-57
2022/12/26 02:22:41;;;;;;;21.35;7.00;;;6.20;99.90;;;;;;5024562;28;20485;-59
2022/12/26 02:25:15;;;;;;;11.10;6.00;;;6.30;99.90;;;;;;5025033;28;20026;-59
2022/12/26 02:27:44;;;;;;;16.38;5.95;;;6.30;99.90;;;;;;5023251;28;20477;-59
2022/12/26 02:30:33;;;;;;;14.52;6.90;;;6.30;99.90;;;;;;5025386;28;20025;-57
2022/12/26 02:33:14;;;;;;;9.52;6.03;;;6.30;99.90;;;;;;5013655;28;20432;-59
2022/12/26 02:35:55;;;;;;;11.95;6.43;;;6.30;99.90;;;;;;5026226;28;20025;-59
2022/12/26 02:38:39;;;;;;;10.35;6.10;;;6.30;99.90;;;;;;5003074;28;20032;-58
2022/12/26 02:41:19;;;;;;;10.75;6.60;;;6.30;99.90;;;;;;5022705;28;20018;-58
2022/12/26 02:47:08;;;;;;;12.05;6.88;;;6.30;99.90;;;;;;5017916;28;20037;-57
2022/12/26 03:13:09;;;;;;;17.60;6.50;;;6.30;99.90;;;;;;5019410;28;20053;-57
2022/12/26 03:15:16;;;;;;;10.75;5.63;;;6.40;99.90;;;;;;5020470;28;20087;-58
2022/12/26 03:17:57;;;;;;;16.88;5.68;;;6.40;99.90;;;;;;5022815;28;20025;-59
2022/12/26 03:20:26;;;;;;;17.00;6.28;;;6.40;99.90;;;;;;5026788;28;20024;-58
2022/12/26 03:23:06;;;;;;;11.07;5.60;;;6.40;99.90;;;;;;5025219;28;20183;-58
2022/12/26 03:28:23;;;;;;;8.75;5.50;;;6.40;99.90;;;;;;5025477;28;20064;-58
2022/12/26 03:30:50;;;;;;;15.23;6.93;;;6.40;99.90;;;;;;5029084;28;20030;-59
2022/12/26 03:36:47;;;;;;;15.52;7.20;;;6.40;99.90;;;;;;5020489;28;20036;-59
2022/12/26 04:20:43;;;;;;;9.68;5.85;;;6.40;99.90;;;;;;5020851;28;20040;-57
2022/12/26 04:46:29;;;;;;;11.75;6.45;;;6.60;99.90;;;;;;5020824;28;20052;-59
2022/12/26 04:51:44;;;;;;;15.35;7.72;;;6.60;99.90;;;;;;4994608;28;20064;-59
2022/12/26 04:54:09;;;;;;;14.88;7.70;;;6.60;99.90;;;;;;5027889;28;20053;-60
2022/12/26 04:56:35;;;;;;;13.65;7.90;;;6.60;99.90;;;;;;5012133;28;20025;-59
2022/12/26 04:59:00;;;;;;;17.73;8.80;;;6.60;99.90;;;;;;5031468;28;20030;-59
2022/12/26 05:09:47;;;;;;;18.45;9.10;;;6.70;99.90;;;;;;5025442;28;20049;-59
2022/12/26 05:12:13;;;;;;;15.85;8.50;;;6.70;99.90;;;;;;5024928;28;20021;-58
2022/12/26 05:14:38;;;;;;;27.92;9.43;;;6.70;99.90;;;;;;5026842;28;20024;-58
2022/12/26 05:30:57;;;;;;;19.83;9.00;;;6.80;99.90;;;;;;5030778;28;20132;-78
2022/12/26 05:36:08;;;;;;;17.85;8.95;;;6.80;99.90;;;;;;5032345;28;20080;-79
2022/12/26 05:38:35;;;;;;;16.15;8.73;;;6.80;99.90;;;;;;5030905;28;20414;-78
2022/12/26 05:41:01;;;;;;;16.15;8.85;;;6.80;99.90;;;;;;5033697;28;20029;-79
2022/12/26 05:43:26;;;;;;;15.75;8.32;;;6.90;99.90;;;;;;5031667;28;20021;-79
2022/12/26 05:45:52;;;;;;;15.77;9.63;;;6.80;99.90;;;;;;5034854;28;20056;-79
2022/12/26 05:48:17;;;;;;;18.00;9.43;;;6.90;99.90;;;;;;5033205;28;20112;-78
2022/12/26 05:50:43;;;;;;;14.75;9.13;;;6.90;99.90;;;;;;5036405;28;20029;-77
2022/12/26 05:53:08;;;;;;;16.90;8.05;;;6.90;99.90;;;;;;5015510;28;20592;-79
2022/12/26 05:55:34;;;;;;;17.17;8.52;;;6.90;99.90;;;;;;5032057;28;20174;-78
2022/12/26 05:58:00;;;;;;;15.27;8.63;;;6.90;99.90;;;;;;5017819;28;20029;-78
2022/12/26 06:00:26;;;;;;;14.85;8.57;;;6.90;99.90;;;;;;5030293;28;20449;-78
2022/12/26 06:02:51;;;;;;;13.40;7.70;;;6.90;99.90;;;;;;5040451;28;20074;-78
2022/12/26 06:05:17;;;;;;;10.75;7.70;;;6.90;99.90;;;;;;5033298;28;20048;-77
2022/12/26 06:07:42;;;;;;;12.18;8.63;;;7.00;99.90;;;;;;5031875;28;20055;-77
2022/12/26 06:10:08;;;;;;;15.55;9.73;;;6.90;99.90;;;;;;5032741;28;20045;-77
2022/12/26 06:12:34;;;;;;;13.60;8.27;;;6.90;99.90;;;;;;5035971;28;20036;-77
2022/12/26 06:15:00;;;;;;;14.25;8.95;;;6.90;99.90;;;;;;5043442;28;20021;-79
2022/12/26 06:17:25;;;;;;;13.88;8.75;;;6.90;99.90;;;;;;5018333;28;20037;-77
2022/12/26 06:19:51;;;;;;;15.00;9.10;;;6.90;99.90;;;;;;5029105;28;20061;-78
2022/12/26 06:22:16;;;;;;;12.27;9.00;;;6.90;99.90;;;;;;5016036;28;20036;-78
2022/12/26 06:24:42;;;;;;;15.05;9.00;;;7.00;99.90;;;;;;5030668;28;20037;-77
2022/12/26 06:27:07;;;;;;;16.13;11.27;;;7.00;99.90;;;;;;5014558;28;20029;-78
2022/12/26 06:29:33;;;;;;;15.80;9.30;;;7.00;99.90;;;;;;5013170;28;20029;-78
2022/12/26 06:31:59;;;;;;;17.10;10.48;;;7.00;99.90;;;;;;5027085;28;20049;-77
2022/12/26 06:34:26;;;;;;;14.60;9.50;;;7.00;99.90;;;;;;5028443;28;20048;-78
2022/12/26 06:36:52;;;;;;;15.02;9.82;;;7.00;99.90;;;;;;5042573;28;20542;-78
2022/12/26 06:39:17;;;;;;;14.00;10.02;;;7.00;99.90;;;;;;5031011;28;20128;-77
2022/12/26 06:41:43;;;;;;;16.17;11.05;;;7.00;99.90;;;;;;5029369;28;20444;-78
2022/12/26 06:44:10;;;;;;;16.23;10.13;;;7.00;99.90;;;;;;5030398;28;20105;-78
2022/12/26 06:46:35;;;;;;;17.65;10.82;;;7.00;99.90;;;;;;5012464;28;20022;-77
2022/12/26 06:49:01;;;;;;;17.10;10.85;;;7.00;99.90;;;;;;5015256;28;20048;-78
2022/12/26 06:51:27;;;;;;;17.60;11.98;;;7.00;99.90;;;;;;5019903;28;20490;-77
2022/12/26 06:53:53;;;;;;;20.95;11.98;;;7.00;99.90;;;;;;5029395;28;20025;-78
2022/12/26 06:56:22;;;;;;;18.55;10.77;;;7.00;99.90;;;;;;5012305;28;20467;-78
2022/12/26 06:58:53;;;;;;;22.92;11.73;;;7.00;99.90;;;;;;5030106;28;20788;-78
2022/12/26 07:01:19;;;;;;;17.65;10.48;;;7.10;99.90;;;;;;5031206;28;20501;-78
2022/12/26 07:03:45;;;;;;;22.40;12.48;;;7.10;99.90;;;;;;5038499;28;20025;-78
2022/12/26 07:06:25;;;;;;;20.25;12.38;;;7.10;99.90;;;;;;5017284;28;20101;-77
2022/12/26 07:08:52;;;;;;;23.30;12.15;;;7.10;99.90;;;;;;5019534;28;20046;-79
2022/12/26 07:11:23;;;;;;;23.27;13.07;;;7.10;99.90;;;;;;5025969;28;20045;-78
2022/12/26 07:13:49;;;;;;;19.88;11.73;;;7.10;99.90;;;;;;5018798;28;20168;-78
2022/12/26 07:16:15;;;;;;;26.75;11.93;;;7.10;99.90;;;;;;5030291;28;20397;-78
2022/12/26 07:18:41;;;;;;;22.52;12.32;;;7.10;99.90;;;;;;5048227;28;20032;-77
2022/12/26 07:21:08;;;;;;;23.17;12.20;;;7.10;99.90;;;;;;5039343;28;20037;-77
2022/12/26 07:23:35;;;;;;;23.13;11.95;;;7.20;99.90;;;;;;5030895;28;20025;-78
2022/12/26 07:26:00;;;;;;;23.20;12.73;;;7.20;99.90;;;;;;5033181;28;20032;-77
2022/12/26 07:28:27;;;;;;;21.20;11.57;;;7.20;99.90;;;;;;5030094;28;20034;-78
2022/12/26 07:30:53;;;;;;;24.30;11.15;;;7.20;99.90;;;;;;5033505;28;20033;-78
2022/12/26 07:33:18;;;;;;;20.15;10.88;;;7.20;99.90;;;;;;5012820;28;20030;-77
2022/12/26 07:35:44;;;;;;;22.48;10.88;;;7.20;99.90;;;;;;5048679;28;20498;-77
2022/12/26 07:38:10;;;;;;;24.90;11.38;;;7.30;99.90;;;;;;5029061;28;20128;-78
2022/12/26 07:40:36;;;;;;;26.90;12.65;;;7.30;99.90;;;;;;5024644;28;20037;-77
2022/12/26 07:43:01;;;;;;;25.58;12.70;;;7.30;99.90;;;;;;5015977;28;20025;-79
2022/12/26 07:45:27;;;;;;;24.80;13.60;;;7.30;99.90;;;;;;5036175;28;20029;-77
2022/12/26 07:47:54;;;;;;;22.85;12.48;;;7.30;99.90;;;;;;5035516;28;20032;-79
2022/12/26 07:50:19;;;;;;;22.40;11.52;;;7.30;99.90;;;;;;5035113;28;20032;-78
2022/12/26 07:52:45;;;;;;;23.33;12.70;;;7.30;99.90;;;;;;5040370;28;20112;-78
2022/12/26 07:55:10;;;;;;;23.33;13.15;;;7.40;99.90;;;;;;5025517;28;20022;-79
2022/12/26 07:57:36;;;;;;;24.08;14.27;;;7.40;99.90;;;;;;5038941;28;20030;-77
2022/12/26 08:00:03;;;;;;;22.25;13.57;;;7.40;99.90;;;;;;5037260;28;20021;-78
2022/12/26 08:02:29;;;;;;;23.10;13.88;;;7.40;99.90;;;;;;5046817;28;20120;-78
2022/12/26 08:04:55;;;;;;;25.52;14.02;;;7.40;99.90;;;;;;5024827;28;20442;-77
2022/12/26 08:07:20;;;;;;;23.75;13.80;;;7.40;99.90;;;;;;5040907;28;20024;-78
2022/12/26 08:09:46;;;;;;;27.80;15.27;;;7.50;99.90;;;;;;5029578;28;20493;-78
2022/12/26 08:12:12;;;;;;;24.10;14.52;;;7.50;99.90;;;;;;5020102;28;20112;-79
2022/12/26 08:14:38;;;;;;;24.80;14.85;;;7.50;99.90;;;;;;5037172;28;20034;-77
2022/12/26 08:17:04;;;;;;;25.42;15.80;;;7.50;99.90;;;;;;5023365;28;20028;-78
2022/12/26 08:19:30;;;;;;;24.65;15.05;;;7.50;99.90;;;;;;5032369;28;20113;-78
2022/12/26 08:21:55;;;;;;;24.08;14.65;;;7.50;99.90;;;;;;5039416;28;20097;-78
2022/12/26 08:24:21;;;;;;;28.73;16.83;;;7.50;99.90;;;;;;5026174;28;20097;-79
2022/12/26 08:26:46;;;;;;;27.25;15.30;;;7.50;99.90;;;;;;5018867;28;20032;-77
2022/12/26 08:29:12;;;;;;;25.70;15.18;;;7.50;99.90;;;;;;5015682;28;20029;-77
2022/12/26 08:31:38;;;;;;;22.42;14.90;;;7.50;99.90;;;;;;5018308;28;20029;-77
2022/12/26 08:34:03;;;;;;;24.40;14.48;;;7.60;99.90;;;;;;5039281;28;20511;-77
2022/12/26 08:36:29;;;;;;;25.85;16.25;;;7.60;99.90;;;;;;5017045;28;20025;-78
2022/12/26 08:38:55;;;;;;;27.00;15.00;;;7.60;99.90;;;;;;5037138;28;20452;-77
2022/12/26 08:41:21;;;;;;;24.95;15.88;;;7.60;99.90;;;;;;5034994;28;20064;-78
2022/12/26 08:43:48;;;;;;;23.73;15.00;;;7.60;99.90;;;;;;5018567;28;20021;-78
2022/12/26 08:46:14;;;;;;;24.80;15.70;;;7.60;99.90;;;;;;5035282;28;20018;-77
2022/12/26 08:48:40;;;;;;;25.13;16.67;;;7.60;99.90;;;;;;5018430;28;20028;-78
2022/12/26 08:51:10;;;;;;;24.00;15.48;;;7.60;99.90;;;;;;5041161;28;20029;-77
2022/12/26 08:53:36;;;;;;;22.65;14.75;;;7.70;99.90;;;;;;5025314;28;20072;-78
2022/12/26 08:56:04;;;;;;;24.77;16.58;;;7.60;99.90;;;;;;5037519;28;20508;-78
2022/12/26 08:58:30;;;;;;;23.33;15.25;;;7.60;99.90;;;;;;5032682;28;20025;-77
2022/12/26 09:01:05;;;;;;;23.80;16.25;;;7.60;99.90;;;;;;5040004;28;20050;-78
2022/12/26 09:03:31;;;;;;;24.92;15.77;;;7.60;99.90;;;;;;5032071;28;20485;-78
2022/12/26 09:05:59;;;;;;;25.38;16.17;;;7.70;99.90;;;;;;5020912;28;20043;-78
2022/12/26 09:08:25;;;;;;;25.90;16.17;;;7.70;99.90;;;;;;5021657;28;20233;-78
2022/12/26 09:10:50;;;;;;;26.88;15.57;;;7.70;99.90;;;;;;5036803;28;20109;-79
2022/12/26 09:13:18;;;;;;;27.45;16.13;;;7.70;99.90;;;;;;5019504;28;20387;-78
2022/12/26 09:15:44;;;;;;;23.38;15.80;;;7.70;99.90;;;;;;5023293;28;20029;-78
2022/12/26 09:18:10;;;;;;;25.63;17.17;;;7.70;99.90;;;;;;5032731;28;20029;-78
2022/12/26 09:20:36;;;;;;;23.45;16.10;;;7.80;99.90;;;;;;5020624;28;20542;-78
2022/12/26 09:23:01;;;;;;;26.77;17.30;;;7.80;99.90;;;;;;5023448;28;20109;-78
2022/12/26 09:25:27;;;;;;;24.25;16.08;;;7.80;99.90;;;;;;5032359;28;20029;-77
2022/12/26 09:27:53;;;;;;;24.88;16.85;;;7.80;99.90;;;;;;5046614;28;20097;-78
2022/12/26 09:30:19;;;;;;;25.25;16.33;;;7.80;99.90;;;;;;5022093;28;20086;-78
2022/12/26 09:32:45;;;;;;;25.42;16.58;;;7.80;99.90;;;;;;5044895;28;20067;-78
2022/12/26 09:35:11;;;;;;;29.15;18.05;;;7.80;99.90;;;;;;5026779;28;20052;-78
2022/12/26 09:37:36;;;;;;;27.13;17.33;;;7.80;99.90;;;;;;5033580;28;20506;-77
2022/12/26 09:40:03;;;;;;;30.73;19.05;;;7.80;99.90;;;;;;5022307;28;20439;-78
2022/12/26 09:42:42;;;;;;;28.25;16.92;;;7.90;99.90;;;;;;5015438;28;20017;-78
2022/12/26 09:45:16;;;;;;;29.40;17.75;;;7.80;99.90;;;;;;5033630;28;20031;-78
2022/12/26 09:47:58;;;;;;;26.85;17.80;;;7.90;99.90;;;;;;5034783;28;20043;-79
2022/12/26 09:50:31;;;;;;;31.17;18.63;;;7.90;99.90;;;;;;5019155;28;20009;-78
2022/12/26 09:53:02;;;;;;;27.55;19.00;;;7.90;99.90;;;;;;5031742;28;20033;-78
2022/12/26 09:55:31;;;;;;;27.00;18.73;;;7.90;99.90;;;;;;5033141;28;20030;-78
2022/12/26 09:58:01;;;;;;;34.42;21.40;;;8.00;99.90;;;;;;5037498;28;20020;-79
2022/12/26 10:00:44;;;;;;;27.50;18.35;;;8.00;99.90;;;;;;5032053;28;20028;-78
2022/12/26 10:03:10;;;;;;;31.08;18.30;;;8.00;99.90;;;;;;5043212;28;20509;-78
2022/12/26 10:06:02;;;;;;;30.50;19.90;;;8.00;99.90;;;;;;5034803;28;20021;-77
2022/12/26 10:09:00;;;;;;;29.33;19.33;;;8.00;99.90;;;;;;5032528;28;20056;-78
2022/12/26 10:12:06;;;;;;;30.50;20.05;;;8.00;99.90;;;;;;5031195;28;20060;-78
2022/12/26 10:15:12;;;;;;;30.27;19.45;;;8.00;99.90;;;;;;5010082;28;20110;-77
2022/12/26 10:17:48;;;;;;;30.20;20.00;;;8.00;99.90;;;;;;5021001;28;20032;-78
2022/12/26 10:21:01;;;;;;;27.80;19.65;;;8.00;99.90;;;;;;5037419;28;20473;-78
2022/12/26 10:23:37;;;;;;;24.73;17.85;;;8.00;99.90;;;;;;4970561;28;20029;-77
2022/12/26 10:26:18;;;;;;;25.45;17.50;;;8.10;99.90;;;;;;5023779;28;20398;-77
2022/12/26 10:29:07;;;;;;;24.50;15.75;;;8.10;99.90;;;;;;5029758;28;20108;-78
2022/12/26 10:31:51;;;;;;;30.63;17.55;;;8.00;99.90;;;;;;5016316;28;20033;-78
2022/12/26 10:34:31;;;;;;;23.88;15.25;;;8.10;99.90;;;;;;5023073;28;20021;-77
2022/12/26 10:37:16;;;;;;;25.92;15.63;;;8.10;99.90;;;;;;5016685;28;20021;-77
2022/12/26 10:39:50;;;;;;;21.73;14.27;;;8.10;99.90;;;;;;5007115;28;20028;-77
2022/12/26 10:42:36;;;;;;;21.73;14.18;;;8.10;99.90;;;;;;5033553;28;20028;-79
2022/12/26 10:45:22;;;;;;;23.33;13.95;;;8.10;99.90;;;;;;5036611;28;20018;-78
2022/12/26 10:47:50;;;;;;;24.30;15.13;;;8.10;99.90;;;;;;5027917;28;20029;-79
2022/12/26 10:50:20;;;;;;;23.70;14.73;;;8.10;99.90;;;;;;5026420;28;20035;-79
2022/12/26 10:52:46;;;;;;;21.45;13.90;;;8.20;99.90;;;;;;5014940;28;20053;-78
2022/12/26 10:55:14;;;;;;;25.63;16.00;;;8.30;99.90;;;;;;5034732;28;20060;-78
2022/12/26 10:57:47;;;;;;;23.75;15.48;;;8.30;99.90;;;;;;5021037;28;20035;-78
2022/12/26 11:00:17;;;;;;;24.30;14.57;;;8.30;99.90;;;;;;5033281;28;20026;-78
2022/12/26 11:02:42;;;;;;;23.10;15.20;;;8.40;99.90;;;;;;5024534;28;20108;-79
2022/12/26 11:05:11;;;;;;;21.85;15.05;;;8.40;99.90;;;;;;5033581;28;20057;-78
2022/12/26 11:07:52;;;;;;;23.92;16.05;;;8.40;99.90;;;;;;5050665;22;20041;-56
2022/12/26 11:10:26;;;;;;;19.60;13.32;;;8.40;99.90;;;;;;5028109;28;20053;-56
2022/12/26 11:12:55;;;;;;;20.70;14.05;;;8.40;99.90;;;;;;5029113;28;20047;-56
2022/12/26 11:15:46;;;;;;;25.67;15.57;;;8.40;99.90;;;;;;5028813;28;20060;-56
2022/12/26 11:18:35;;;;;;;18.77;14.15;;;8.40;99.90;;;;;;5022506;28;20502;-53
2022/12/26 11:21:31;;;;;;;19.92;12.95;;;8.40;99.90;;;;;;5058877;22;20047;-58
2022/12/26 11:24:09;;;;;;;22.00;13.80;;;8.40;99.90;;;;;;5031548;28;20540;-58
2022/12/26 11:26:36;;;;;;;18.58;12.63;;;8.40;99.90;;;;;;5043620;28;20029;-59
2022/12/26 11:29:17;;;;;;;21.02;13.63;;;8.40;99.90;;;;;;5049156;28;20079;-57
2022/12/26 11:31:56;;;;;;;19.25;13.57;;;8.40;99.90;;;;;;5044415;28;20025;-58
2022/12/26 11:34:34;;;;;;;20.60;13.27;;;8.40;99.90;;;;;;5049148;28;20017;-58
2022/12/26 11:37:02;;;;;;;18.63;12.73;;;8.40;99.90;;;;;;5048690;28;20048;-57
2022/12/26 11:39:34;;;;;;;19.67;12.55;;;8.50;99.90;;;;;;5048948;28;20032;-58
2022/12/26 11:42:08;;;;;;;18.95;13.18;;;8.40;99.90;;;;;;5048490;28;20040;-58
2022/12/26 11:44:39;;;;;;;26.33;18.10;;;8.40;99.90;;;;;;5039633;28;20032;-59
2022/12/26 11:47:10;;;;;;;21.50;13.38;;;8.40;99.90;;;;;;5048459;28;20618;-57
2022/12/26 11:49:57;;;;;;;17.77;12.05;;;8.40;99.90;;;;;;5047832;28;20021;-59
2022/12/26 11:52:41;;;;;;;16.90;12.13;;;8.40;99.90;;;;;;5047199;28;20532;-58
2022/12/26 11:55:37;;;;;;;18.63;11.77;;;8.40;99.90;;;;;;5048808;28;20484;-55
2022/12/26 11:58:09;;;;;;;16.55;11.48;;;8.40;99.90;;;;;;5032737;28;20037;-57
2022/12/26 12:01:04;;;;;;;15.18;11.63;;;8.40;99.90;;;;;;5043838;28;20025;-59
2022/12/26 12:03:37;;;;;;;18.85;13.13;;;8.40;99.90;;;;;;5048765;28;20104;-59
2022/12/26 12:06:21;;;;;;;19.27;12.15;;;8.40;99.90;;;;;;5043798;28;20063;-59
2022/12/26 12:09:15;;;;;;;21.55;11.85;;;8.40;99.90;;;;;;5042771;28;20021;-58
2022/12/26 12:12:00;;;;;;;17.15;11.57;;;8.40;99.90;;;;;;5040780;28;20025;-59
2022/12/26 12:14:38;;;;;;;16.23;11.20;;;8.40;99.90;;;;;;5048126;28;20059;-58
2022/12/26 12:17:25;;;;;;;18.23;11.45;;;8.40;99.90;;;;;;5043903;28;20060;-58
2022/12/26 12:20:12;;;;;;;17.20;11.00;;;8.40;99.90;;;;;;5048544;28;20028;-59
2022/12/26 12:22:58;;;;;;;16.40;9.82;;;8.40;99.90;;;;;;5047067;28;20611;-58
2022/12/26 12:25:37;;;;;;;14.30;10.73;;;8.40;99.90;;;;;;5051832;28;20096;-58
2022/12/26 12:28:29;;;;;;;14.60;10.48;;;8.40;99.90;;;;;;5051315;28;20212;-58
2022/12/26 12:31:04;;;;;;;12.43;10.40;;;8.40;99.90;;;;;;5051359;28;20021;-58
2022/12/26 12:33:41;;;;;;;12.95;9.55;;;8.40;99.90;;;;;;5051329;28;20361;-58
2022/12/26 12:36:20;;;;;;;14.68;10.63;;;8.40;99.90;;;;;;5051139;28;20516;-59
2022/12/26 12:38:59;;;;;;;13.95;10.30;;;8.50;99.90;;;;;;5052321;28;20510;-59
2022/12/26 12:42:05;;;;;;;11.77;9.73;;;8.50;99.90;;;;;;5051927;28;20021;-59
2022/12/26 12:45:13;;;;;;;13.05;10.05;;;8.50;99.90;;;;;;5044935;28;20032;-58
2022/12/26 12:47:39;;;;;;;13.18;10.60;;;8.50;99.90;;;;;;5045058;28;20017;-57
2022/12/26 12:50:49;;;;;;;22.02;10.57;;;8.50;99.90;;;;;;5050620;28;20025;-56
2022/12/26 12:53:32;;;;;;;10.75;9.02;;;8.50;99.90;;;;;;5008125;28;20068;-56
2022/12/26 12:56:10;;;;;;;14.45;9.93;;;8.50;99.90;;;;;;5049820;28;20048;-59
2022/12/26 12:58:49;;;;;;;12.95;9.13;;;8.50;99.90;;;;;;5049275;28;20063;-57
2022/12/26 13:01:20;;;;;;;14.07;9.43;;;8.50;99.90;;;;;;5051726;28;20017;-59
2022/12/26 13:03:53;;;;;;;8.45;7.13;;;8.50;99.90;;;;;;5051709;28;20025;-55
2022/12/26 13:06:33;;;;;;;12.50;8.02;;;8.60;99.90;;;;;;5049913;28;20025;-59
2022/12/26 13:09:12;;;;;;;8.65;6.30;;;8.60;99.90;;;;;;5050470;28;20031;-58
2022/12/26 13:11:44;;;;;;;7.85;5.82;;;8.60;99.90;;;;;;5044201;28;20029;-55
2022/12/26 13:14:20;;;;;;;8.68;5.40;;;8.60;99.90;;;;;;5051535;28;20045;-57
2022/12/26 13:16:57;;;;;;;6.40;4.88;;;8.60;99.90;;;;;;5051133;28;20033;-56
2022/12/26 13:19:37;;;;;;;7.97;4.35;;;8.60;99.90;;;;;;5049965;28;20029;-56
2022/12/26 13:22:12;;;;;;;5.53;3.65;;;8.70;99.90;;;;;;5046199;28;20031;-58
2022/12/26 13:24:49;;;;;;;4.05;2.88;;;8.60;99.90;;;;;;5044866;28;20771;-58
2022/12/26 13:27:23;;;;;;;5.13;2.30;;;8.60;99.90;;;;;;5050044;28;20096;-53
2022/12/26 13:29:48;;;;;;;5.32;1.77;;;8.50;99.90;;;;;;5050925;28;20021;-54
2022/12/26 13:32:27;;;;;;;3.83;1.70;;;8.50;99.90;;;;;;5050958;28;20100;-56
2022/12/26 13:34:55;;;;;;;3.58;1.45;;;8.50;99.90;;;;;;5050972;28;20028;-56
2022/12/26 13:37:38;;;;;;;5.13;1.65;;;8.40;99.90;;;;;;5051021;28;20484;-54
2022/12/26 13:40:20;;;;;;;4.20;1.85;;;8.40;99.90;;;;;;5049711;28;20407;-56
2022/12/26 13:45:47;;;;;;;4.75;1.10;;;8.10;99.90;;;;;;5044501;28;20032;-54
2022/12/26 13:48:15;;;;;;;2.75;1.10;;;8.00;99.90;;;;;;5051096;28;20119;-54
2022/12/26 13:50:47;;;;;;;2.85;1.02;;;7.90;99.90;;;;;;5050969;28;20100;-54
2022/12/26 13:53:30;;;;;;;2.28;0.90;;;7.80;99.90;;;;;;5050773;28;20599;-58
2022/12/26 13:56:01;;;;;;;2.33;0.70;;;7.70;99.90;;;;;;5050697;28;20047;-53
2022/12/26 13:58:35;;;;;;;4.82;1.45;;;7.50;99.90;;;;;;5050447;28;20484;-57
2022/12/26 14:01:28;;;;;;;6.55;1.20;;;7.50;99.90;;;;;;5050624;28;20049;-58
2022/12/26 14:04:24;;;;;;;4.65;1.27;;;7.30;99.90;;;;;;5050497;28;20017;-56
2022/12/26 14:07:27;;;;;;;5.43;1.50;;;7.30;99.90;;;;;;5046364;28;20468;-58
2022/12/26 14:10:23;;;;;;;6.93;1.90;;;7.30;99.90;;;;;;5045504;28;20113;-57
2022/12/26 14:12:59;;;;;;;8.07;1.83;;;7.30;99.90;;;;;;5044842;28;20017;-58
2022/12/26 14:15:51;;;;;;;8.73;2.33;;;7.20;99.90;;;;;;5050408;28;20025;-57
2022/12/26 14:18:38;;;;;;;10.05;3.10;;;7.10;99.90;;;;;;5038815;28;20037;-55
2022/12/26 14:21:41;;;;;;;6.57;2.38;;;7.10;99.90;;;;;;5050162;28;20083;-55
2022/12/26 14:24:25;;;;;;;10.63;2.75;;;7.00;99.90;;;;;;5046094;28;20013;-56
2022/12/26 14:27:12;;;;;;;5.25;2.28;;;6.90;99.90;;;;;;5049132;28;20041;-58
2022/12/26 14:29:51;;;;;;;6.28;1.40;;;6.90;99.90;;;;;;5043376;28;20378;-57
2022/12/26 14:32:54;;;;;;;7.20;2.90;;;6.80;99.90;;;;;;5048554;28;20044;-58
2022/12/26 14:35:48;;;;;;;12.02;5.20;;;6.70;99.90;;;;;;5049714;28;20023;-57
2022/12/26 14:38:35;;;;;;;13.40;7.07;;;6.70;99.90;;;;;;5048531;28;20036;-56
2022/12/26 14:41:08;;;;;;;23.17;11.40;;;6.70;99.90;;;;;;5046202;28;20036;-59
2022/12/26 14:43:35;;;;;;;12.35;4.60;;;6.60;99.90;;;;;;5044755;28;20392;-57
2022/12/26 14:46:03;;;;;;;9.15;3.35;;;6.60;99.90;;;;;;5049219;28;20469;-55
2022/12/26 14:48:29;;;;;;;6.93;1.38;;;6.50;99.90;;;;;;5049641;28;20215;-57
2022/12/26 14:51:14;;;;;;;5.60;1.80;;;6.50;99.90;;;;;;5044712;28;20543;-57
2022/12/26 14:53:42;;;;;;;4.80;2.28;;;6.40;99.90;;;;;;5044094;28;20174;-55
2022/12/26 14:56:09;;;;;;;4.63;3.05;;;6.30;99.90;;;;;;5049381;28;20028;-57
2022/12/26 14:58:46;;;;;;;7.78;3.00;;;6.30;99.90;;;;;;5047950;28;20031;-59
2022/12/26 15:01:12;;;;;;;9.98;8.07;;;6.30;99.90;;;;;;5046900;28;20020;-58
2022/12/26 15:03:46;;;;;;;7.35;3.05;;;6.20;99.90;;;;;;5048281;28;20021;-59
2022/12/26 15:06:18;;;;;;;10.55;2.50;;;6.20;99.90;;;;;;5049097;28;20013;-57
2022/12/26 15:08:52;;;;;;;7.18;3.13;;;6.20;99.90;;;;;;5043098;28;20032;-57
2022/12/26 15:11:23;;;;;;;8.13;2.10;;;6.20;99.90;;;;;;5049037;28;20025;-58
2022/12/26 15:14:06;;;;;;;6.68;2.03;;;6.10;99.90;;;;;;5043851;28;20024;-58
2022/12/26 15:16:43;;;;;;;5.28;1.75;;;6.10;99.90;;;;;;5044486;28;20029;-56
2022/12/26 15:19:35;;;;;;;11.43;2.17;;;6.00;99.90;;;;;;5049098;28;20032;-59
2022/12/26 15:22:13;;;;;;;8.00;1.65;;;5.90;99.90;;;;;;5040915;28;20082;-58